sensor_id;sensor_type;location;lat;lon;timestamp;temperature;humidity
5775;DHT22;2913;51.120;6.772;2022-12-22T00:01:46;9.30;99.90
5775;DHT22;2913;51.120;6.772;2022-12-22T00:04:33;9.30;99.90
5775;DHT22;2913;51.120;6.772;2022-12-22T00:07:17;9.30;99.90
5775;DHT22;2913;51.120;6.772;2022-12-22T00:10:01;9.30;99.90
5775;DHT22;2913;51.120;6.772;2022-12-22T00:12:45;9.30;99.90
5775;DHT22;2913;51.120;6.772;2022-12-22T00:15:32;9.40;99.90
5775;DHT22;2913;51.120;6.772;2022-12-22T00:18:16;9.40;99.90
5775;DHT22;2913;51.120;6.772;2022-12-22T00:21:00;9.40;99.90
5775;DHT22;2913;51.120;6.772;2022-12-22T00:23:44;9.40;99.90
5775;DHT22;2913;51.120;6.772;2022-12-22T00:26:30;9.50;99.90
5775;DHT22;2913;51.120;6.772;2022-12-22T00:29:15;9.40;99.90
5775;DHT22;2913;51.120;6.772;2022-12-22T00:32:00;9.40;99.90
5775;DHT22;2913;51.120;6.772;2022-12-22T00:34:45;9.40;99.90
5775;DHT22;2913;51.120;6.772;2022-12-22T00:37:33;9.40;99.90
5775;DHT22;2913;51.120;6.772;2022-12-22T00:40:20;9.40;99.90
5775;DHT22;2913;51.120;6.772;2022-12-22T00:43:07;9.40;99.90
5775;DHT22;2913;51.120;6.772;2022-12-22T00:45:51;9.30;99.90
5775;DHT22;2913;51.120;6.772;2022-12-22T00:48:39;9.50;99.90
5775;DHT22;2913;51.120;6.772;2022-12-22T00:51:25;9.40;99.90
5775;DHT22;2913;51.120;6.772;2022-12-22T00:54:13;9.40;99.90
5775;DHT22;2913;51.120;6.772;2022-12-22T00:56:59;9.30;99.90
5775;DHT22;2913;51.120;6.772;2022-12-22T00:59:45;9.30;99.90
5775;DHT22;2913;51.120;6.772;2022-12-22T01:02:33;9.30;99.90
5775;DHT22;2913;51.120;6.772;2022-12-22T01:05:20;9.30;99.90
5775;DHT22;2913;51.120;6.772;2022-12-22T01:08:04;9.30;99.90
5775;DHT22;2913;51.120;6.772;2022-12-22T01:10:48;9.30;99.90
5775;DHT22;2913;51.120;6.772;2022-12-22T01:13:32;9.30;99.90
5775;DHT22;2913;51.120;6.772;2022-12-22T01:16:18;9.40;99.90
5775;DHT22;2913;51.120;6.772;2022-12-22T01:19:02;9.30;99.90
5775;DHT22;2913;51.120;6.772;2022-12-22T01:21:46;9.30;99.90
5775;DHT22;2913;51.120;6.772;2022-12-22T01:24:30;9.30;99.90
5775;DHT22;2913;51.120;6.772;2022-12-22T01:27:15;9.30;99.90
5775;DHT22;2913;51.120;6.772;2022-12-22T01:29:59;9.30;99.90
5775;DHT22;2913;51.120;6.772;2022-12-22T01:32:44;9.30;99.90
5775;DHT22;2913;51.120;6.772;2022-12-22T01:35:31;9.30;99.90
5775;DHT22;2913;51.120;6.772;2022-12-22T01:38:16;9.40;99.90
5775;DHT22;2913;51.120;6.772;2022-12-22T01:41:04;9.30;99.90
5775;DHT22;2913;51.120;6.772;2022-12-22T01:43:48;9.40;99.90
5775;DHT22;2913;51.120;6.772;2022-12-22T01:46:39;9.40;99.90
5775;DHT22;2913;51.120;6.772;2022-12-22T01:49:38;9.40;99.90
5775;DHT22;2913;51.120;6.772;2022-12-22T01:52:34;9.30;99.90
5775;DHT22;2913;51.120;6.772;2022-12-22T01:55:22;9.40;99.90
5775;DHT22;2913;51.120;6.772;2022-12-22T01:58:15;9.40;99.90
5775;DHT22;2913;51.120;6.772;2022-12-22T02:01:05;9.40;99.90
5775;DHT22;2913;51.120;6.772;2022-12-22T02:03:49;9.50;99.90
5775;DHT22;2913;51.120;6.772;2022-12-22T02:06:37;9.50;99.90
5775;DHT22;2913;51.120;6.772;2022-12-22T02:18:55;9.60;99.90
5775;DHT22;2913;51.120;6.772;2022-12-22T02:22:09;9.60;99.90
5775;DHT22;2913;51.120;6.772;2022-12-22T02:25:03;9.60;99.90
5775;DHT22;2913;51.120;6.772;2022-12-22T02:27:50;9.60;99.90
5775;DHT22;2913;51.120;6.772;2022-12-22T02:30:37;9.60;99.90
5775;DHT22;2913;51.120;6.772;2022-12-22T02:33:21;9.60;99.90
5775;DHT22;2913;51.120;6.772;2022-12-22T02:36:29;9.60;99.90
5775;DHT22;2913;51.120;6.772;2022-12-22T02:48:11;9.70;99.90
5775;DHT22;2913;51.120;6.772;2022-12-22T02:51:10;9.70;99.90
5775;DHT22;2913;51.120;6.772;2022-12-22T02:53:56;9.70;99.90
5775;DHT22;2913;51.120;6.772;2022-12-22T02:56:45;9.70;99.90
5775;DHT22;2913;51.120;6.772;2022-12-22T02:59:30;9.70;99.90
5775;DHT22;2913;51.120;6.772;2022-12-22T03:02:14;9.70;99.90
5775;DHT22;2913;51.120;6.772;2022-12-22T03:05:00;9.60;99.90
5775;DHT22;2913;51.120;6.772;2022-12-22T03:07:44;9.60;99.90
5775;DHT22;2913;51.120;6.772;2022-12-22T03:10:29;9.60;99.90
5775;DHT22;2913;51.120;6.772;2022-12-22T03:13:13;9.60;99.90
5775;DHT22;2913;51.120;6.772;2022-12-22T03:15:57;9.60;99.90
5775;DHT22;2913;51.120;6.772;2022-12-22T03:18:41;9.50;99.90
5775;DHT22;2913;51.120;6.772;2022-12-22T03:21:25;9.60;99.90
5775;DHT22;2913;51.120;6.772;2022-12-22T03:24:11;9.60;99.90
5775;DHT22;2913;51.120;6.772;2022-12-22T03:26:55;9.60;99.90
5775;DHT22;2913;51.120;6.772;2022-12-22T03:29:21;9.60;99.90
5775;DHT22;2913;51.120;6.772;2022-12-22T03:31:51;9.60;99.90
5775;DHT22;2913;51.120;6.772;2022-12-22T03:34:17;9.60;99.90
5775;DHT22;2913;51.120;6.772;2022-12-22T03:36:45;9.70;99.90
5775;DHT22;2913;51.120;6.772;2022-12-22T03:39:10;9.60;99.90
5775;DHT22;2913;51.120;6.772;2022-12-22T03:41:38;9.60;99.90
5775;DHT22;2913;51.120;6.772;2022-12-22T03:44:25;9.70;99.90
5775;DHT22;2913;51.120;6.772;2022-12-22T03:47:09;9.70;99.90
5775;DHT22;2913;51.120;6.772;2022-12-22T03:49:34;9.70;99.90
5775;DHT22;2913;51.120;6.772;2022-12-22T03:52:02;9.70;99.90
5775;DHT22;2913;51.120;6.772;2022-12-22T03:54:30;9.70;99.90
5775;DHT22;2913;51.120;6.772;2022-12-22T03:56:57;9.70;99.90
5775;DHT22;2913;51.120;6.772;2022-12-22T03:59:25;9.70;99.90
5775;DHT22;2913;51.120;6.772;2022-12-22T04:01:53;9.70;99.90
5775;DHT22;2913;51.120;6.772;2022-12-22T04:04:21;9.70;99.90
5775;DHT22;2913;51.120;6.772;2022-12-22T04:06:47;9.70;99.90
5775;DHT22;2913;51.120;6.772;2022-12-22T04:09:13;9.70;99.90
5775;DHT22;2913;51.120;6.772;2022-12-22T04:11:39;9.70;99.90
5775;DHT22;2913;51.120;6.772;2022-12-22T04:14:23;9.80;99.90
5775;DHT22;2913;51.120;6.772;2022-12-22T04:16:52;9.70;99.90
5775;DHT22;2913;51.120;6.772;2022-12-22T04:19:17;9.70;99.90
5775;DHT22;2913;51.120;6.772;2022-12-22T04:21:45;9.70;99.90
5775;DHT22;2913;51.120;6.772;2022-12-22T04:24:11;9.70;99.90
5775;DHT22;2913;51.120;6.772;2022-12-22T04:26:37;9.70;99.90
5775;DHT22;2913;51.120;6.772;2022-12-22T04:29:06;9.70;99.90
5775;DHT22;2913;51.120;6.772;2022-12-22T04:31:37;9.70;99.90
5775;DHT22;2913;51.120;6.772;2022-12-22T04:34:02;9.80;99.90
5775;DHT22;2913;51.120;6.772;2022-12-22T04:36:30;9.80;99.90
5775;DHT22;2913;51.120;6.772;2022-12-22T04:38:58;9.80;99.90
5775;DHT22;2913;51.120;6.772;2022-12-22T04:41:29;9.80;99.90
5775;DHT22;2913;51.120;6.772;2022-12-22T04:43:57;9.80;99.90
5775;DHT22;2913;51.120;6.772;2022-12-22T04:46:25;9.80;99.90
5775;DHT22;2913;51.120;6.772;2022-12-22T04:48:50;9.80;99.90
5775;DHT22;2913;51.120;6.772;2022-12-22T04:51:16;9.90;99.90
5775;DHT22;2913;51.120;6.772;2022-12-22T04:53:41;9.90;99.90
5775;DHT22;2913;51.120;6.772;2022-12-22T04:56:12;9.90;99.90
5775;DHT22;2913;51.120;6.772;2022-12-22T04:58:37;9.90;99.90
5775;DHT22;2913;51.120;6.772;2022-12-22T05:01:14;9.90;99.90
5775;DHT22;2913;51.120;6.772;2022-12-22T05:03:40;10.00;99.90
5775;DHT22;2913;51.120;6.772;2022-12-22T05:06:06;9.90;99.90
5775;DHT22;2913;51.120;6.772;2022-12-22T05:08:32;10.00;99.90
5775;DHT22;2913;51.120;6.772;2022-12-22T05:10:57;9.90;99.90
5775;DHT22;2913;51.120;6.772;2022-12-22T05:13:23;10.00;99.90
5775;DHT22;2913;51.120;6.772;2022-12-22T05:15:51;10.00;99.90
5775;DHT22;2913;51.120;6.772;2022-12-22T05:18:19;10.00;99.90
5775;DHT22;2913;51.120;6.772;2022-12-22T05:20:44;10.10;99.90
5775;DHT22;2913;51.120;6.772;2022-12-22T05:23:12;10.10;99.90
5775;DHT22;2913;51.120;6.772;2022-12-22T05:25:40;10.10;99.90
5775;DHT22;2913;51.120;6.772;2022-12-22T05:28:06;10.10;99.90
5775;DHT22;2913;51.120;6.772;2022-12-22T05:30:31;10.20;99.90
5775;DHT22;2913;51.120;6.772;2022-12-22T05:32:57;10.20;99.90
5775;DHT22;2913;51.120;6.772;2022-12-22T05:35:23;10.20;99.90
5775;DHT22;2913;51.120;6.772;2022-12-22T05:37:48;10.30;99.90
5775;DHT22;2913;51.120;6.772;2022-12-22T05:40:14;10.20;99.90
5775;DHT22;2913;51.120;6.772;2022-12-22T05:42:42;10.30;99.90
5775;DHT22;2913;51.120;6.772;2022-12-22T05:45:14;10.30;99.90
5775;DHT22;2913;51.120;6.772;2022-12-22T05:47:44;10.30;99.90
5775;DHT22;2913;51.120;6.772;2022-12-22T05:50:15;10.30;99.90
5775;DHT22;2913;51.120;6.772;2022-12-22T05:52:45;10.30;99.90
5775;DHT22;2913;51.120;6.772;2022-12-22T05:55:12;10.30;99.90
5775;DHT22;2913;51.120;6.772;2022-12-22T05:57:41;10.30;99.90
5775;DHT22;2913;51.120;6.772;2022-12-22T06:00:12;10.30;99.90
5775;DHT22;2913;51.120;6.772;2022-12-22T06:02:39;10.30;99.90
5775;DHT22;2913;51.120;6.772;2022-12-22T06:05:06;10.30;99.90
5775;DHT22;2913;51.120;6.772;2022-12-22T06:07:32;10.30;99.90
5775;DHT22;2913;51.120;6.772;2022-12-22T06:10:03;10.30;99.90
5775;DHT22;2913;51.120;6.772;2022-12-22T06:12:32;10.30;99.90
5775;DHT22;2913;51.120;6.772;2022-12-22T06:15:00;10.30;99.90
5775;DHT22;2913;51.120;6.772;2022-12-22T06:17:25;10.30;99.90
5775;DHT22;2913;51.120;6.772;2022-12-22T06:19:51;10.30;99.90
5775;DHT22;2913;51.120;6.772;2022-12-22T06:22:19;10.30;99.90
5775;DHT22;2913;51.120;6.772;2022-12-22T06:24:44;10.30;99.90
5775;DHT22;2913;51.120;6.772;2022-12-22T06:27:10;10.30;99.90
5775;DHT22;2913;51.120;6.772;2022-12-22T06:29:36;10.30;99.90
5775;DHT22;2913;51.120;6.772;2022-12-22T06:32:04;10.40;99.90
5775;DHT22;2913;51.120;6.772;2022-12-22T06:34:30;10.30;99.90
5775;DHT22;2913;51.120;6.772;2022-12-22T06:36:56;10.30;99.90
5775;DHT22;2913;51.120;6.772;2022-12-22T06:39:24;10.30;99.90
5775;DHT22;2913;51.120;6.772;2022-12-22T06:41:49;10.30;99.90
5775;DHT22;2913;51.120;6.772;2022-12-22T06:44:33;10.30;99.90
5775;DHT22;2913;51.120;6.772;2022-12-22T06:46:59;10.30;99.90
5775;DHT22;2913;51.120;6.772;2022-12-22T06:49:25;10.30;99.90
5775;DHT22;2913;51.120;6.772;2022-12-22T06:51:50;10.30;99.90
5775;DHT22;2913;51.120;6.772;2022-12-22T06:54:16;10.30;99.90
5775;DHT22;2913;51.120;6.772;2022-12-22T06:56:44;10.20;99.90
5775;DHT22;2913;51.120;6.772;2022-12-22T06:59:12;10.30;99.90
5775;DHT22;2913;51.120;6.772;2022-12-22T07:01:38;10.30;99.90
5775;DHT22;2913;51.120;6.772;2022-12-22T07:04:07;10.20;99.90
5775;DHT22;2913;51.120;6.772;2022-12-22T07:06:33;10.20;99.90
5775;DHT22;2913;51.120;6.772;2022-12-22T07:08:58;10.20;99.90
5775;DHT22;2913;51.120;6.772;2022-12-22T07:11:27;10.20;99.90
5775;DHT22;2913;51.120;6.772;2022-12-22T07:13:53;10.20;99.90
5775;DHT22;2913;51.120;6.772;2022-12-22T07:16:20;10.20;99.90
5775;DHT22;2913;51.120;6.772;2022-12-22T07:18:48;10.20;99.90
5775;DHT22;2913;51.120;6.772;2022-12-22T07:21:16;10.20;99.90
5775;DHT22;2913;51.120;6.772;2022-12-22T07:23:46;10.20;99.90
5775;DHT22;2913;51.120;6.772;2022-12-22T07:26:17;10.20;99.90
5775;DHT22;2913;51.120;6.772;2022-12-22T07:28:42;10.20;99.90
5775;DHT22;2913;51.120;6.772;2022-12-22T07:31:09;10.20;99.90
5775;DHT22;2913;51.120;6.772;2022-12-22T07:33:37;10.20;99.90
5775;DHT22;2913;51.120;6.772;2022-12-22T07:38:43;10.20;99.90
5775;DHT22;2913;51.120;6.772;2022-12-22T07:41:13;10.30;99.90
5775;DHT22;2913;51.120;6.772;2022-12-22T07:44:01;10.30;99.90
5775;DHT22;2913;51.120;6.772;2022-12-22T07:46:34;10.30;99.90
5775;DHT22;2913;51.120;6.772;2022-12-22T07:49:00;10.30;99.90
5775;DHT22;2913;51.120;6.772;2022-12-22T07:51:44;10.30;99.90
5775;DHT22;2913;51.120;6.772;2022-12-22T07:54:13;10.40;99.90
5775;DHT22;2913;51.120;6.772;2022-12-22T07:56:43;10.40;99.90
5775;DHT22;2913;51.120;6.772;2022-12-22T07:59:09;10.40;99.90
5775;DHT22;2913;51.120;6.772;2022-12-22T08:01:35;10.40;99.90
5775;DHT22;2913;51.120;6.772;2022-12-22T08:04:03;10.40;99.90
5775;DHT22;2913;51.120;6.772;2022-12-22T08:06:31;10.40;99.90
5775;DHT22;2913;51.120;6.772;2022-12-22T08:08:57;10.50;99.90
5775;DHT22;2913;51.120;6.772;2022-12-22T08:11:22;10.40;99.90
5775;DHT22;2913;51.120;6.772;2022-12-22T08:13:50;10.50;99.90
5775;DHT22;2913;51.120;6.772;2022-12-22T08:16:16;10.50;99.90
5775;DHT22;2913;51.120;6.772;2022-12-22T08:18:42;10.50;99.90
5775;DHT22;2913;51.120;6.772;2022-12-22T08:21:08;10.40;99.90
5775;DHT22;2913;51.120;6.772;2022-12-22T08:23:34;10.50;99.90
5775;DHT22;2913;51.120;6.772;2022-12-22T08:26:05;10.50;99.90
5775;DHT22;2913;51.120;6.772;2022-12-22T08:28:33;10.50;99.90
5775;DHT22;2913;51.120;6.772;2022-12-22T08:31:01;10.50;99.90
5775;DHT22;2913;51.120;6.772;2022-12-22T08:33:28;10.50;99.90
5775;DHT22;2913;51.120;6.772;2022-12-22T08:35:54;10.50;99.90
5775;DHT22;2913;51.120;6.772;2022-12-22T08:38:21;10.50;99.90
5775;DHT22;2913;51.120;6.772;2022-12-22T08:40:50;10.50;99.90
5775;DHT22;2913;51.120;6.772;2022-12-22T08:43:16;10.50;99.90
5775;DHT22;2913;51.120;6.772;2022-12-22T08:45:42;10.50;99.90
5775;DHT22;2913;51.120;6.772;2022-12-22T08:48:09;10.50;99.90
5775;DHT22;2913;51.120;6.772;2022-12-22T08:50:35;10.50;99.90
5775;DHT22;2913;51.120;6.772;2022-12-22T08:53:04;10.50;99.90
5775;DHT22;2913;51.120;6.772;2022-12-22T08:55:30;10.50;99.90
5775;DHT22;2913;51.120;6.772;2022-12-22T08:57:58;10.50;99.90
5775;DHT22;2913;51.120;6.772;2022-12-22T09:00:24;10.60;99.90
5775;DHT22;2913;51.120;6.772;2022-12-22T09:02:50;10.60;99.90
5775;DHT22;2913;51.120;6.772;2022-12-22T09:05:16;10.60;99.90
5775;DHT22;2913;51.120;6.772;2022-12-22T09:07:44;10.60;99.90
5775;DHT22;2913;51.120;6.772;2022-12-22T09:10:15;10.60;99.90
5775;DHT22;2913;51.120;6.772;2022-12-22T09:12:41;10.60;99.90
5775;DHT22;2913;51.120;6.772;2022-12-22T09:15:09;10.60;99.90
5775;DHT22;2913;51.120;6.772;2022-12-22T09:17:38;10.60;99.90
5775;DHT22;2913;51.120;6.772;2022-12-22T09:20:04;10.60;99.90
5775;DHT22;2913;51.120;6.772;2022-12-22T09:22:30;10.60;99.90
5775;DHT22;2913;51.120;6.772;2022-12-22T09:24:56;10.60;99.90
5775;DHT22;2913;51.120;6.772;2022-12-22T09:27:21;10.60;99.90
5775;DHT22;2913;51.120;6.772;2022-12-22T09:29:47;10.60;99.90
5775;DHT22;2913;51.120;6.772;2022-12-22T09:32:15;10.70;99.90
5775;DHT22;2913;51.120;6.772;2022-12-22T09:34:43;10.70;99.90
5775;DHT22;2913;51.120;6.772;2022-12-22T09:37:08;10.70;99.90
5775;DHT22;2913;51.120;6.772;2022-12-22T09:39:34;10.70;99.90
5775;DHT22;2913;51.120;6.772;2022-12-22T09:42:03;10.70;99.90
5775;DHT22;2913;51.120;6.772;2022-12-22T09:44:40;10.70;99.90
5775;DHT22;2913;51.120;6.772;2022-12-22T09:47:24;10.80;99.90
5775;DHT22;2913;51.120;6.772;2022-12-22T09:49:51;10.80;99.90
5775;DHT22;2913;51.120;6.772;2022-12-22T09:55:01;10.90;99.90
5775;DHT22;2913;51.120;6.772;2022-12-22T09:57:30;10.90;99.90
5775;DHT22;2913;51.120;6.772;2022-12-22T10:00:14;10.90;99.90
5775;DHT22;2913;51.120;6.772;2022-12-22T10:08:15;10.80;99.90
5775;DHT22;2913;51.120;6.772;2022-12-22T10:10:41;10.80;99.90
5775;DHT22;2913;51.120;6.772;2022-12-22T10:13:16;10.80;99.90
5775;DHT22;2913;51.120;6.772;2022-12-22T10:15:44;10.80;99.90
5775;DHT22;2913;51.120;6.772;2022-12-22T10:18:24;10.80;99.90
5775;DHT22;2913;51.120;6.772;2022-12-22T10:23:39;10.80;99.90
5775;DHT22;2913;51.120;6.772;2022-12-22T10:28:59;10.90;99.90
5775;DHT22;2913;51.120;6.772;2022-12-22T10:31:28;11.00;99.90
5775;DHT22;2913;51.120;6.772;2022-12-22T10:34:09;11.00;99.90
5775;DHT22;2913;51.120;6.772;2022-12-22T10:36:38;11.10;99.90
5775;DHT22;2913;51.120;6.772;2022-12-22T10:39:09;11.00;99.90
5775;DHT22;2913;51.120;6.772;2022-12-22T10:41:39;10.90;99.90
5775;DHT22;2913;51.120;6.772;2022-12-22T10:44:08;10.90;99.90
5775;DHT22;2913;51.120;6.772;2022-12-22T10:46:41;11.00;99.90
5775;DHT22;2913;51.120;6.772;2022-12-22T10:49:27;11.00;99.90
5775;DHT22;2913;51.120;6.772;2022-12-22T10:52:10;11.00;99.90
5775;DHT22;2913;51.120;6.772;2022-12-22T10:54:39;11.10;99.90
5775;DHT22;2913;51.120;6.772;2022-12-22T10:59:58;11.20;99.90
5775;DHT22;2913;51.120;6.772;2022-12-22T11:04:53;11.10;99.90
5775;DHT22;2913;51.120;6.772;2022-12-22T11:07:19;11.10;99.90
5775;DHT22;2913;51.120;6.772;2022-12-22T11:09:45;11.30;99.90
5775;DHT22;2913;51.120;6.772;2022-12-22T11:47:23;11.40;99.90
5775;DHT22;2913;51.120;6.772;2022-12-22T11:59:00;11.30;99.90
5775;DHT22;2913;51.120;6.772;2022-12-22T12:01:41;11.30;99.90
5775;DHT22;2913;51.120;6.772;2022-12-22T12:15:35;11.50;99.90
5775;DHT22;2913;51.120;6.772;2022-12-22T12:26:22;11.50;99.90
5775;DHT22;2913;51.120;6.772;2022-12-22T12:29:19;11.50;99.90
5775;DHT22;2913;51.120;6.772;2022-12-22T12:34:33;11.50;99.90
5775;DHT22;2913;51.120;6.772;2022-12-22T12:42:30;11.40;99.90
5775;DHT22;2913;51.120;6.772;2022-12-22T12:44:56;11.30;99.90
5775;DHT22;2913;51.120;6.772;2022-12-22T12:47:30;11.30;99.90
5775;DHT22;2913;51.120;6.772;2022-12-22T12:50:33;11.30;99.90
5775;DHT22;2913;51.120;6.772;2022-12-22T12:53:10;11.30;99.90
5775;DHT22;2913;51.120;6.772;2022-12-22T12:58:08;11.50;99.90
5775;DHT22;2913;51.120;6.772;2022-12-22T13:08:32;11.50;99.90
5775;DHT22;2913;51.120;6.772;2022-12-22T13:20:59;11.70;99.90
5775;DHT22;2913;51.120;6.772;2022-12-22T13:23:41;11.50;99.90
5775;DHT22;2913;51.120;6.772;2022-12-22T13:26:14;11.50;99.90
5775;DHT22;2913;51.120;6.772;2022-12-22T13:28:51;11.60;99.90
5775;DHT22;2913;51.120;6.772;2022-12-22T13:31:32;11.60;99.90
5775;DHT22;2913;51.120;6.772;2022-12-22T13:36:39;11.60;99.90
5775;DHT22;2913;51.120;6.772;2022-12-22T13:39:14;11.60;99.90
5775;DHT22;2913;51.120;6.772;2022-12-22T13:41:46;11.60;99.90
5775;DHT22;2913;51.120;6.772;2022-12-22T13:44:23;11.50;99.90
5775;DHT22;2913;51.120;6.772;2022-12-22T13:46:52;11.50;99.90
5775;DHT22;2913;51.120;6.772;2022-12-22T13:49:21;11.50;99.90
5775;DHT22;2913;51.120;6.772;2022-12-22T13:51:50;11.50;99.90
5775;DHT22;2913;51.120;6.772;2022-12-22T13:54:18;11.50;99.90
5775;DHT22;2913;51.120;6.772;2022-12-22T13:56:50;11.50;99.90
5775;DHT22;2913;51.120;6.772;2022-12-22T13:59:29;11.50;99.90
5775;DHT22;2913;51.120;6.772;2022-12-22T14:02:00;11.50;99.90
5775;DHT22;2913;51.120;6.772;2022-12-22T14:04:27;11.50;99.90
5775;DHT22;2913;51.120;6.772;2022-12-22T14:06:53;11.40;99.90
5775;DHT22;2913;51.120;6.772;2022-12-22T14:09:26;11.30;99.90
5775;DHT22;2913;51.120;6.772;2022-12-22T14:14:25;11.20;99.90
5775;DHT22;2913;51.120;6.772;2022-12-22T14:16:55;11.20;99.90
5775;DHT22;2913;51.120;6.772;2022-12-22T14:19:30;11.20;99.90
5775;DHT22;2913;51.120;6.772;2022-12-22T14:22:08;11.20;99.90
5775;DHT22;2913;51.120;6.772;2022-12-22T14:24:42;11.20;99.90
5775;DHT22;2913;51.120;6.772;2022-12-22T14:29:47;11.00;99.90
5775;DHT22;2913;51.120;6.772;2022-12-22T14:32:35;11.00;99.90
5775;DHT22;2913;51.120;6.772;2022-12-22T14:35:02;11.00;99.90
5775;DHT22;2913;51.120;6.772;2022-12-22T14:37:27;10.90;99.90
5775;DHT22;2913;51.120;6.772;2022-12-22T14:39:55;10.90;99.90
5775;DHT22;2913;51.120;6.772;2022-12-22T14:42:26;10.80;99.90
5775;DHT22;2913;51.120;6.772;2022-12-22T14:44:54;10.80;99.90
5775;DHT22;2913;51.120;6.772;2022-12-22T14:47:24;10.80;99.90
5775;DHT22;2913;51.120;6.772;2022-12-22T14:49:56;10.80;99.90
5775;DHT22;2913;51.120;6.772;2022-12-22T14:52:32;10.80;99.90
5775;DHT22;2913;51.120;6.772;2022-12-22T14:55:01;10.80;99.90
5775;DHT22;2913;51.120;6.772;2022-12-22T14:57:34;10.80;99.90
5775;DHT22;2913;51.120;6.772;2022-12-22T15:02:57;10.70;99.90
5775;DHT22;2913;51.120;6.772;2022-12-22T15:07:58;10.60;99.90
5775;DHT22;2913;51.120;6.772;2022-12-22T15:10:25;10.60;99.90
5775;DHT22;2913;51.120;6.772;2022-12-22T15:13:02;10.60;99.90
5775;DHT22;2913;51.120;6.772;2022-12-22T15:15:29;10.50;99.90
5775;DHT22;2913;51.120;6.772;2022-12-22T15:17:56;10.50;99.90
5775;DHT22;2913;51.120;6.772;2022-12-22T15:20:24;10.50;99.90
5775;DHT22;2913;51.120;6.772;2022-12-22T15:22:50;10.50;99.90
5775;DHT22;2913;51.120;6.772;2022-12-22T15:25:21;10.50;99.90
5775;DHT22;2913;51.120;6.772;2022-12-22T15:27:47;10.40;99.90
5775;DHT22;2913;51.120;6.772;2022-12-22T15:30:18;10.40;99.90
5775;DHT22;2913;51.120;6.772;2022-12-22T15:32:45;10.40;99.90
5775;DHT22;2913;51.120;6.772;2022-12-22T15:35:26;10.40;99.90
5775;DHT22;2913;51.120;6.772;2022-12-22T15:37:52;10.50;99.90
5775;DHT22;2913;51.120;6.772;2022-12-22T15:40:22;10.40;99.90
5775;DHT22;2913;51.120;6.772;2022-12-22T15:42:48;10.40;99.90
5775;DHT22;2913;51.120;6.772;2022-12-22T15:45:18;10.30;99.90
5775;DHT22;2913;51.120;6.772;2022-12-22T15:47:48;10.30;99.90
5775;DHT22;2913;51.120;6.772;2022-12-22T15:50:18;10.20;99.90
5775;DHT22;2913;51.120;6.772;2022-12-22T15:52:49;10.20;99.90
5775;DHT22;2913;51.120;6.772;2022-12-22T15:55:16;10.10;99.90
5775;DHT22;2913;51.120;6.772;2022-12-22T15:57:48;10.10;99.90
5775;DHT22;2913;51.120;6.772;2022-12-22T16:00:19;10.10;99.90
5775;DHT22;2913;51.120;6.772;2022-12-22T16:02:45;10.00;99.90
5775;DHT22;2913;51.120;6.772;2022-12-22T16:05:11;10.00;99.90
5775;DHT22;2913;51.120;6.772;2022-12-22T16:07:44;10.00;99.90
5775;DHT22;2913;51.120;6.772;2022-12-22T16:10:22;10.00;99.90
5775;DHT22;2913;51.120;6.772;2022-12-22T16:12:52;10.00;99.90
5775;DHT22;2913;51.120;6.772;2022-12-22T16:15:20;9.90;99.90
5775;DHT22;2913;51.120;6.772;2022-12-22T16:17:48;9.90;99.90
5775;DHT22;2913;51.120;6.772;2022-12-22T16:20:17;9.90;99.90
5775;DHT22;2913;51.120;6.772;2022-12-22T16:22:45;9.90;99.90
5775;DHT22;2913;51.120;6.772;2022-12-22T16:25:17;9.90;99.90
5775;DHT22;2913;51.120;6.772;2022-12-22T16:27:45;10.00;99.90
5775;DHT22;2913;51.120;6.772;2022-12-22T16:30:24;9.90;99.90
5775;DHT22;2913;51.120;6.772;2022-12-22T16:32:50;9.90;99.90
5775;DHT22;2913;51.120;6.772;2022-12-22T16:35:22;9.90;99.90
5775;DHT22;2913;51.120;6.772;2022-12-22T16:37:48;9.80;99.90
5775;DHT22;2913;51.120;6.772;2022-12-22T16:40:15;9.80;99.90
5775;DHT22;2913;51.120;6.772;2022-12-22T16:42:59;9.80;99.90
5775;DHT22;2913;51.120;6.772;2022-12-22T16:45:27;9.70;99.90
5775;DHT22;2913;51.120;6.772;2022-12-22T16:47:57;9.70;99.90
5775;DHT22;2913;51.120;6.772;2022-12-22T16:50:27;9.70;99.90
5775;DHT22;2913;51.120;6.772;2022-12-22T16:52:59;9.60;99.90
5775;DHT22;2913;51.120;6.772;2022-12-22T16:55:25;9.60;99.90
5775;DHT22;2913;51.120;6.772;2022-12-22T16:57:51;9.60;99.90
5775;DHT22;2913;51.120;6.772;2022-12-22T17:00:25;9.60;99.90
5775;DHT22;2913;51.120;6.772;2022-12-22T17:02:55;9.60;99.90
5775;DHT22;2913;51.120;6.772;2022-12-22T17:05:25;9.70;99.90
5775;DHT22;2913;51.120;6.772;2022-12-22T17:07:52;9.60;99.90
5775;DHT22;2913;51.120;6.772;2022-12-22T17:10:19;9.70;99.90
5775;DHT22;2913;51.120;6.772;2022-12-22T17:12:46;9.60;99.90
5775;DHT22;2913;51.120;6.772;2022-12-22T17:15:18;9.60;99.90
5775;DHT22;2913;51.120;6.772;2022-12-22T17:17:45;9.50;99.90
5775;DHT22;2913;51.120;6.772;2022-12-22T17:20:19;9.50;99.90
5775;DHT22;2913;51.120;6.772;2022-12-22T17:22:50;9.50;99.90
5775;DHT22;2913;51.120;6.772;2022-12-22T17:25:22;9.50;99.90
5775;DHT22;2913;51.120;6.772;2022-12-22T17:27:48;9.50;99.90
5775;DHT22;2913;51.120;6.772;2022-12-22T17:30:22;9.60;99.90
5775;DHT22;2913;51.120;6.772;2022-12-22T17:32:50;9.50;99.90
5775;DHT22;2913;51.120;6.772;2022-12-22T17:35:21;9.60;99.90
5775;DHT22;2913;51.120;6.772;2022-12-22T17:37:48;9.50;99.90
5775;DHT22;2913;51.120;6.772;2022-12-22T17:40:23;9.50;99.90
5775;DHT22;2913;51.120;6.772;2022-12-22T17:42:51;9.50;99.90
5775;DHT22;2913;51.120;6.772;2022-12-22T17:45:17;9.60;99.90
5775;DHT22;2913;51.120;6.772;2022-12-22T17:47:43;9.60;99.90
5775;DHT22;2913;51.120;6.772;2022-12-22T17:50:18;9.60;99.90
5775;DHT22;2913;51.120;6.772;2022-12-22T17:52:47;9.70;99.90
5775;DHT22;2913;51.120;6.772;2022-12-22T17:55:23;9.60;99.90
5775;DHT22;2913;51.120;6.772;2022-12-22T17:57:49;9.60;99.90
5775;DHT22;2913;51.120;6.772;2022-12-22T18:00:24;9.60;99.90
5775;DHT22;2913;51.120;6.772;2022-12-22T18:02:52;9.60;99.90
5775;DHT22;2913;51.120;6.772;2022-12-22T18:05:20;9.60;99.90
5775;DHT22;2913;51.120;6.772;2022-12-22T18:07:48;9.60;99.90
5775;DHT22;2913;51.120;6.772;2022-12-22T18:10:23;9.60;99.90
5775;DHT22;2913;51.120;6.772;2022-12-22T18:12:52;9.60;99.90
5775;DHT22;2913;51.120;6.772;2022-12-22T18:15:19;9.70;99.90
5775;DHT22;2913;51.120;6.772;2022-12-22T18:17:47;9.70;99.90
5775;DHT22;2913;51.120;6.772;2022-12-22T18:20:18;9.70;99.90
5775;DHT22;2913;51.120;6.772;2022-12-22T18:22:44;9.70;99.90
5775;DHT22;2913;51.120;6.772;2022-12-22T18:25:26;9.70;99.90
5775;DHT22;2913;51.120;6.772;2022-12-22T18:27:52;9.70;99.90
5775;DHT22;2913;51.120;6.772;2022-12-22T18:30:28;9.70;99.90
5775;DHT22;2913;51.120;6.772;2022-12-22T18:32:54;9.70;99.90
5775;DHT22;2913;51.120;6.772;2022-12-22T18:35:24;9.70;99.90
5775;DHT22;2913;51.120;6.772;2022-12-22T18:37:51;9.70;99.90
5775;DHT22;2913;51.120;6.772;2022-12-22T18:40:26;9.70;99.90
5775;DHT22;2913;51.120;6.772;2022-12-22T18:42:55;9.70;99.90
5775;DHT22;2913;51.120;6.772;2022-12-22T18:45:23;9.80;99.90
5775;DHT22;2913;51.120;6.772;2022-12-22T18:47:52;9.80;99.90
5775;DHT22;2913;51.120;6.772;2022-12-22T18:50:26;9.80;99.90
5775;DHT22;2913;51.120;6.772;2022-12-22T18:52:54;9.90;99.90
5775;DHT22;2913;51.120;6.772;2022-12-22T18:55:23;9.90;99.90
5775;DHT22;2913;51.120;6.772;2022-12-22T18:57:50;9.90;99.90
5775;DHT22;2913;51.120;6.772;2022-12-22T19:00:24;9.90;99.90
5775;DHT22;2913;51.120;6.772;2022-12-22T19:02:52;9.80;99.90
5775;DHT22;2913;51.120;6.772;2022-12-22T19:05:24;9.90;99.90
5775;DHT22;2913;51.120;6.772;2022-12-22T19:07:50;9.90;99.90
5775;DHT22;2913;51.120;6.772;2022-12-22T19:12:54;9.90;99.90